Map

Track Data

SID SEASON NUMBER BASIN SUBBASIN NAME ISO_TIME NATURE LAT LON WMO_WIND WMO_PRES WMO_AGENCY TRACK_TYPE DIST2LAND LANDFALL IFLAG USA_AGENCY USA_ATCF_ID USA_LAT USA_LON USA_RECORD USA_STATUS USA_WIND USA_PRES USA_SSHS USA_R34_NE USA_R34_SE USA_R34_SW USA_R34_NW USA_R50_NE USA_R50_SE USA_R50_SW USA_R50_NW USA_R64_NE USA_R64_SE USA_R64_SW USA_R64_NW USA_POCI USA_ROCI USA_RMW USA_EYE TOKYO_LAT TOKYO_LON TOKYO_GRADE TOKYO_WIND TOKYO_PRES TOKYO_R50_DIR TOKYO_R50_LONG TOKYO_R50_SHORT TOKYO_R30_DIR TOKYO_R30_LONG TOKYO_R30_SHORT TOKYO_LAND CMA_LAT CMA_LON CMA_CAT CMA_WIND CMA_PRES HKO_LAT HKO_LON HKO_CAT HKO_WIND HKO_PRES NEWDELHI_LAT NEWDELHI_LON NEWDELHI_GRADE NEWDELHI_WIND NEWDELHI_PRES NEWDELHI_CI NEWDELHI_DP NEWDELHI_POCI REUNION_LAT REUNION_LON REUNION_TYPE REUNION_WIND REUNION_PRES REUNION_TNUM REUNION_CI REUNION_RMW REUNION_R34_NE REUNION_R34_SE REUNION_R34_SW REUNION_R34_NW REUNION_R50_NE REUNION_R50_SE REUNION_R50_SW REUNION_R50_NW REUNION_R64_NE REUNION_R64_SE REUNION_R64_SW REUNION_R64_NW BOM_LAT BOM_LON BOM_TYPE BOM_WIND BOM_PRES BOM_TNUM BOM_CI BOM_RMW BOM_R34_NE BOM_R34_SE BOM_R34_SW BOM_R34_NW BOM_R50_NE BOM_R50_SE BOM_R50_SW BOM_R50_NW BOM_R64_NE BOM_R64_SE BOM_R64_SW BOM_R64_NW BOM_ROCI BOM_POCI BOM_EYE BOM_POS_METHOD BOM_PRES_METHOD NADI_LAT NADI_LON NADI_CAT NADI_WIND NADI_PRES WELLINGTON_LAT WELLINGTON_LON WELLINGTON_WIND WELLINGTON_PRES DS824_LAT DS824_LON DS824_STAGE DS824_WIND DS824_PRES TD9636_LAT TD9636_LON TD9636_STAGE TD9636_WIND TD9636_PRES TD9635_LAT TD9635_LON TD9635_WIND TD9635_PRES TD9635_ROCI NEUMANN_LAT NEUMANN_LON NEUMANN_CLASS NEUMANN_WIND NEUMANN_PRES MLC_LAT MLC_LON MLC_CLASS MLC_WIND MLC_PRES USA_GUST BOM_GUST BOM_GUST_PER REUNION_GUST REUNION_GUST_PER USA_SEAHGT USA_SEARAD_NE USA_SEARAD_SE USA_SEARAD_SW USA_SEARAD_NW STORM_SPEED STORM_DIR
1961256N26282 1961 93 NA NA NOT_NAMED 1961-09-12 12:00:00 TS 25.8000 -78.0000 25 hurdat_atl main 78 78 O_____________ hurdat_atl AL061961 25.8000 -78.0000 TD 25 -1 2 16
1961256N26282 1961 93 NA NA NOT_NAMED 1961-09-12 15:00:00 TS 25.8850 -77.9875 main 89 89 P_____________ AL061961 25.8850 -77.9875 TD 25 -1 2 8
1961256N26282 1961 93 NA NA NOT_NAMED 1961-09-12 18:00:00 TS 26.0000 -78.0000 25 hurdat_atl main 100 100 O_____________ hurdat_atl AL061961 26.0000 -78.0000 TD 25 -1 3 349
1961256N26282 1961 93 NA NA NOT_NAMED 1961-09-12 21:00:00 TS 26.1700 -78.0499 main 122 122 P_____________ AL061961 26.1700 -78.0499 TD 25 -1 4 348
1961256N26282 1961 93 NA NA NOT_NAMED 1961-09-13 00:00:00 TS 26.4000 -78.1000 25 hurdat_atl main 145 145 O_____________ hurdat_atl AL061961 26.4000 -78.1000 TD 25 -1 5 355
1961256N26282 1961 93 NA NA NOT_NAMED 1961-09-13 03:00:00 TS 26.6400 -78.1001 main 167 167 P_____________ AL061961 26.6400 -78.1001 TD 25 -1 6 1
1961256N26282 1961 93 NA NA NOT_NAMED 1961-09-13 06:00:00 TS 27.0000 -78.1000 25 hurdat_atl main 189 189 O_____________ hurdat_atl AL061961 27.0000 -78.1000 TD 25 -1 9 358
1961256N26282 1961 93 NA NA NOT_NAMED 1961-09-13 09:00:00 TS 27.5400 -78.1498 main 203 199 P_____________ AL061961 27.5400 -78.1498 TD 27 -1 12 356
1961256N26282 1961 93 NA NA NOT_NAMED 1961-09-13 12:00:00 TS 28.2000 -78.2000 30 hurdat_atl main 224 224 O_____________ hurdat_atl AL061961 28.2000 -78.2000 TD 30 -1 13 358
1961256N26282 1961 93 NA NA NOT_NAMED 1961-09-13 15:00:00 TS 28.8625 -78.2076 main 228 228 P_____________ AL061961 28.8625 -78.2076 TD 32 -1 14 0
1961256N26282 1961 93 NA NA NOT_NAMED 1961-09-13 18:00:00 TS 29.6000 -78.2000 35 hurdat_atl main 254 254 O_____________ hurdat_atl AL061961 29.6000 -78.2000 TS 35 0 16 1
1961256N26282 1961 93 NA NA NOT_NAMED 1961-09-13 21:00:00 TS 30.4275 -78.2073 main 297 220 P_____________ AL061961 30.4275 -78.2073 TS 37 0 17 0
1961256N26282 1961 93 NA NA NOT_NAMED 1961-09-14 00:00:00 TS 31.3000 -78.2000 40 hurdat_atl main 220 150 O_____________ hurdat_atl AL061961 31.3000 -78.2000 TS 40 0 18 0
1961256N26282 1961 93 NA NA NOT_NAMED 1961-09-14 03:00:00 TS 32.1724 -78.1869 main 143 100 P_____________ AL061961 32.1724 -78.1869 TS 40 0 17 3
1961256N26282 1961 93 NA NA NOT_NAMED 1961-09-14 06:00:00 TS 33.0000 -78.1000 40 hurdat_atl main 100 24 O_____________ hurdat_atl AL061961 33.0000 -78.1000 TS 40 0 16 8
1961256N26282 1961 93 NA NA NOT_NAMED 1961-09-14 09:00:00 TS 33.7073 -77.9165 main 24 0 P_____________ AL061961 33.7073 -77.9165 TS 40 0 15 17
1961256N26282 1961 93 NA NA NOT_NAMED 1961-09-14 12:00:00 TS 34.4000 -77.6000 40 hurdat_atl main 0 0 O_____________ hurdat_atl AL061961 34.4000 -77.6000 L TS 40 0 16 24
1961256N26282 1961 93 NA NA NOT_NAMED 1961-09-14 15:00:00 TS 35.1250 -77.1536 main 0 0 P_____________ AL061961 35.1250 -77.1536 TS 40 0 18 27
1961256N26282 1961 93 NA NA NOT_NAMED 1961-09-14 18:00:00 TS 36.0000 -76.6000 40 hurdat_atl main 8 0 O_____________ hurdat_atl AL061961 36.0000 -76.6000 TS 40 0 22 25
1961256N26282 1961 93 NA NA NOT_NAMED 1961-09-14 21:00:00 TS 37.1000 -76.0000 45 hurdat_atl main 8 0 O_____________ hurdat_atl AL061961 37.1000 -76.0000 L TS 45 0 25 24
1961256N26282 1961 93 NA NA NOT_NAMED 1961-09-15 00:00:00 TS 38.3000 -75.3000 50 hurdat_atl main 0 0 O_____________ hurdat_atl AL061961 38.3000 -75.3000 TS 50 0 26 29
1961256N26282 1961 93 NA NA NOT_NAMED 1961-09-15 03:00:00 TS 39.3491 -74.4148 main 14 0 P_____________ AL061961 39.3491 -74.4148 TS 52 0 29 34
1961256N26282 1961 93 NA NA NOT_NAMED 1961-09-15 06:00:00 TS 40.7000 -73.2000 55 996 hurdat_atl main 0 0 O_____________ hurdat_atl AL061961 40.7000 -73.2000 L TS 55 996 0 35 34
1961256N26282 1961 93 NA NA NOT_NAMED 1961-09-15 07:00:00 TS 41.3000 -72.7000 55 hurdat_atl main 0 0 I_____________ hurdat_atl AL061961 41.3000 -72.7000 L TS 55 995 0 42 33
1961256N26282 1961 93 NA NA NOT_NAMED 1961-09-15 09:00:00 TS 42.4652 -71.6735 main 0 0 P_____________ AL061961 42.4652 -71.6735 TS 57 995 0 41 34
1961256N26282 1961 93 NA NA NOT_NAMED 1961-09-15 12:00:00 ET 44.1000 -70.1000 60 995 hurdat_atl main 0 O_____________ hurdat_atl AL061961 44.1000 -70.1000 EX 60 995 -4 40 35

About IBTrACS Database

This database is a web-friendly format of International Best Track Archive for Climate Stewardship (IBTrACS), a global best track data archive curated by NOAA dating back to 1842.

Updated: 2021-10-08